createdAt,value
2023-05-19T00:01:00.446Z,12.60
2023-05-19T00:03:28.931Z,12.60
2023-05-19T00:05:59.451Z,12.50
2023-05-19T00:08:29.908Z,12.60
2023-05-19T00:10:58.242Z,12.50
2023-05-19T00:13:26.581Z,12.40
2023-05-19T00:15:56.414Z,12.40
2023-05-19T00:18:24.339Z,12.30
2023-05-19T00:20:52.450Z,12.30
2023-05-19T00:23:20.271Z,12.30
2023-05-19T00:25:48.062Z,12.30
2023-05-19T00:28:16.143Z,12.40
2023-05-19T00:30:43.977Z,12.40
2023-05-19T00:33:13.159Z,12.30
2023-05-19T00:35:41.291Z,12.30
2023-05-19T00:38:09.131Z,12.20
2023-05-19T00:40:37.345Z,12.20
2023-05-19T00:43:08.308Z,12.20
2023-05-19T00:45:36.253Z,12.20
2023-05-19T00:48:04.148Z,12.20
2023-05-19T00:50:34.064Z,12.10
2023-05-19T00:53:02.327Z,12.20
2023-05-19T00:55:32.813Z,12.20
2023-05-19T00:58:01.404Z,12.10
2023-05-19T01:00:30.010Z,12.10
2023-05-19T01:02:58.617Z,12.00
2023-05-19T01:05:27.544Z,12.10
2023-05-19T01:07:56.990Z,12.00
2023-05-19T01:10:24.947Z,11.90
2023-05-19T01:12:52.965Z,12.00
2023-05-19T01:15:21.247Z,11.90
2023-05-19T01:17:56.894Z,11.90
2023-05-19T01:20:33.831Z,11.80
2023-05-19T01:23:21.593Z,11.80
2023-05-19T01:26:18.633Z,11.70
2023-05-19T01:29:09.237Z,11.70
2023-05-19T01:31:40.759Z,11.70
2023-05-19T01:34:10.684Z,11.70
2023-05-19T01:36:39.480Z,11.70
2023-05-19T01:39:07.910Z,11.60
2023-05-19T01:41:36.524Z,11.50
2023-05-19T01:44:04.450Z,11.60
2023-05-19T01:46:32.351Z,11.60
2023-05-19T01:49:02.120Z,11.50
2023-05-19T01:51:30.011Z,11.50
2023-05-19T01:53:57.852Z,11.50
2023-05-19T01:56:37.989Z,11.50
2023-05-19T01:59:19.972Z,11.50
2023-05-19T02:01:54.140Z,11.40
2023-05-19T02:04:39.113Z,11.40
2023-05-19T02:07:13.214Z,11.40
2023-05-19T02:09:51.700Z,11.30
2023-05-19T02:12:26.706Z,11.30
2023-05-19T02:15:00.898Z,11.30
2023-05-19T02:17:33.049Z,11.30
2023-05-19T02:20:04.457Z,11.30
2023-05-19T02:22:32.392Z,11.40
2023-05-19T02:25:00.281Z,11.40
2023-05-19T02:27:28.209Z,11.40
2023-05-19T02:29:56.207Z,11.40
2023-05-19T02:32:24.043Z,11.50
2023-05-19T02:34:53.213Z,11.50
2023-05-19T02:37:23.856Z,11.40
2023-05-19T02:39:52.181Z,11.40
2023-05-19T02:42:20.040Z,11.50
2023-05-19T02:44:47.906Z,11.60
2023-05-19T02:47:15.804Z,11.50
2023-05-19T02:49:44.216Z,11.40
2023-05-19T02:52:12.260Z,11.40
2023-05-19T02:54:41.405Z,11.20
2023-05-19T02:57:09.284Z,11.20
2023-05-19T02:59:37.135Z,11.20
2023-05-19T03:02:05.267Z,11.20
2023-05-19T03:04:33.207Z,11.20
2023-05-19T03:07:02.158Z,11.20
2023-05-19T03:09:30.016Z,11.20
2023-05-19T03:12:03.841Z,11.20
2023-05-19T03:14:32.644Z,11.10
2023-05-19T03:17:01.210Z,11.10
2023-05-19T03:19:29.158Z,11.10
2023-05-19T03:21:57.078Z,11.10
2023-05-19T03:24:24.927Z,11.20
2023-05-19T03:26:52.823Z,11.20
2023-05-19T03:29:22.032Z,11.30
2023-05-19T03:31:49.922Z,11.30
2023-05-19T03:34:17.742Z,11.40
2023-05-19T03:36:45.540Z,11.40
2023-05-19T03:39:13.363Z,11.40
2023-05-19T03:41:41.222Z,11.30
2023-05-19T03:44:09.066Z,11.40
2023-05-19T03:46:38.250Z,11.40
2023-05-19T03:49:06.388Z,11.40
2023-05-19T03:51:34.893Z,11.40
2023-05-19T03:54:02.763Z,11.40
2023-05-19T03:56:31.022Z,11.40
2023-05-19T03:58:59.414Z,11.50
2023-05-19T04:01:27.269Z,11.40
2023-05-19T04:03:56.470Z,11.30
2023-05-19T04:06:24.366Z,11.30
2023-05-19T04:08:52.189Z,11.30
2023-05-19T04:11:21.478Z,11.20
2023-05-19T04:13:49.328Z,11.20
2023-05-19T04:16:17.324Z,11.20
2023-05-19T04:18:46.391Z,11.20
2023-05-19T04:21:15.656Z,11.20
2023-05-19T04:23:43.506Z,11.20
2023-05-19T04:26:12.173Z,11.20
2023-05-19T04:28:42.359Z,11.20
2023-05-19T04:31:10.943Z,11.10
2023-05-19T04:33:39.051Z,11.10
2023-05-19T04:36:10.596Z,11.10
2023-05-19T04:38:40.602Z,11.10
2023-05-19T04:41:10.814Z,11.00
2023-05-19T04:43:41.545Z,11.00
2023-05-19T04:46:12.309Z,11.00
2023-05-19T04:48:41.447Z,11.00
2023-05-19T04:51:09.530Z,11.00
2023-05-19T04:53:40.185Z,11.10
2023-05-19T04:56:08.412Z,11.00
2023-05-19T04:58:39.100Z,11.00
2023-05-19T05:01:09.576Z,10.90
2023-05-19T05:03:37.519Z,10.90
2023-05-19T05:06:06.490Z,11.00
2023-05-19T05:08:34.365Z,11.00
2023-05-19T05:11:04.259Z,11.10
2023-05-19T05:13:32.727Z,11.10
2023-05-19T05:16:00.988Z,11.10
2023-05-19T05:18:29.385Z,11.20
2023-05-19T05:20:57.802Z,11.20
2023-05-19T05:23:26.178Z,11.20
2023-05-19T05:25:54.729Z,11.20
2023-05-19T05:28:24.183Z,11.20
2023-05-19T05:30:52.023Z,11.20
2023-05-19T05:33:22.208Z,11.10
2023-05-19T05:35:51.040Z,11.10
2023-05-19T05:38:18.913Z,11.10
2023-05-19T05:40:46.720Z,11.10
2023-05-19T05:43:14.586Z,11.20
2023-05-19T05:45:43.790Z,11.20
2023-05-19T05:48:12.349Z,11.20
2023-05-19T05:50:41.098Z,11.30
2023-05-19T05:53:10.354Z,11.40
2023-05-19T05:55:38.781Z,11.40
2023-05-19T05:58:06.686Z,11.50
2023-05-19T06:00:34.921Z,11.40
2023-05-19T06:03:04.714Z,11.50
2023-05-19T06:05:32.791Z,11.50
2023-05-19T06:08:00.640Z,11.50
2023-05-19T06:10:29.530Z,11.60
2023-05-19T06:12:57.396Z,11.60
2023-05-19T06:15:25.629Z,11.70
2023-05-19T06:17:54.554Z,11.70
2023-05-19T06:20:23.880Z,11.90
2023-05-19T06:22:51.720Z,12.00
2023-05-19T06:25:20.616Z,12.00
2023-05-19T06:27:48.451Z,12.00
2023-05-19T06:30:16.606Z,12.20
2023-05-19T06:32:44.431Z,12.20
2023-05-19T06:35:12.417Z,12.30
2023-05-19T06:37:41.593Z,12.30
2023-05-19T06:40:10.468Z,12.30
2023-05-19T06:42:38.325Z,12.40
2023-05-19T06:45:07.178Z,12.50
2023-05-19T06:47:35.093Z,12.60
2023-05-19T06:50:03.131Z,12.80
2023-05-19T06:52:31.260Z,12.90
2023-05-19T06:55:00.523Z,13.00
2023-05-19T06:57:28.424Z,13.10
2023-05-19T06:59:56.453Z,13.20
2023-05-19T07:02:24.301Z,13.30
2023-05-19T07:04:53.963Z,13.40
2023-05-19T07:07:22.440Z,13.50
2023-05-19T07:09:50.298Z,13.80
2023-05-19T07:12:19.512Z,13.90
2023-05-19T07:14:47.375Z,14.00
2023-05-19T07:17:16.791Z,14.20
2023-05-19T07:19:44.721Z,14.20
2023-05-19T07:22:12.538Z,14.30
2023-05-19T07:24:40.741Z,14.30
2023-05-19T07:27:08.657Z,14.40
2023-05-19T07:29:38.137Z,14.40
2023-05-19T07:32:07.027Z,14.40
2023-05-19T07:34:34.899Z,14.50
2023-05-19T07:37:03.339Z,14.50
2023-05-19T07:39:32.369Z,14.70
2023-05-19T07:42:00.256Z,14.90
2023-05-19T07:44:28.230Z,15.00
2023-05-19T07:46:57.609Z,15.10
2023-05-19T07:49:25.588Z,15.20
2023-05-19T07:51:53.694Z,15.40
2023-05-19T07:54:22.055Z,15.50
2023-05-19T07:56:49.945Z,15.70
2023-05-19T07:59:17.958Z,15.90
2023-05-19T08:01:45.906Z,16.10
2023-05-19T08:04:15.208Z,16.30
2023-05-19T08:06:44.529Z,16.70
2023-05-19T08:09:12.961Z,17.00
2023-05-19T08:11:41.126Z,17.20
2023-05-19T08:14:09.053Z,17.50
2023-05-19T08:16:36.882Z,17.80
2023-05-19T08:19:06.822Z,18.00
2023-05-19T08:21:36.642Z,18.30
2023-05-19T08:24:05.275Z,18.40
2023-05-19T08:26:35.046Z,18.20
2023-05-19T08:29:04.213Z,18.40
2023-05-19T08:31:32.266Z,18.50
2023-05-19T08:34:00.219Z,18.50
2023-05-19T08:36:28.769Z,18.50
2023-05-19T08:38:57.930Z,18.50
2023-05-19T08:41:26.367Z,19.00
2023-05-19T08:43:54.328Z,19.30
2023-05-19T08:46:24.955Z,19.60
2023-05-19T08:48:59.366Z,19.50
2023-05-19T08:51:34.740Z,19.20
2023-05-19T08:54:13.076Z,19.10
2023-05-19T08:56:41.459Z,19.00
2023-05-19T08:59:09.788Z,18.90
2023-05-19T09:01:38.713Z,18.60
2023-05-19T09:04:08.038Z,18.50
2023-05-19T09:06:35.970Z,18.60
2023-05-19T09:09:06.155Z,18.40
2023-05-19T09:11:35.689Z,18.40
2023-05-19T09:14:03.558Z,18.20
2023-05-19T09:16:32.450Z,18.10
2023-05-19T09:19:01.118Z,17.80
2023-05-19T09:21:31.427Z,17.70
2023-05-19T09:23:59.873Z,17.60
2023-05-19T09:26:38.382Z,17.60
2023-05-19T09:29:12.748Z,17.60
2023-05-19T09:31:40.723Z,17.60
2023-05-19T09:34:14.011Z,17.60
2023-05-19T09:36:42.511Z,17.70
2023-05-19T09:39:17.104Z,17.70
2023-05-19T09:41:46.804Z,17.80
2023-05-19T09:44:15.564Z,17.80
2023-05-19T09:46:50.397Z,18.10
2023-05-19T09:49:22.595Z,18.20
2023-05-19T09:51:52.084Z,18.20
2023-05-19T09:54:21.596Z,18.20
2023-05-19T09:56:58.568Z,18.20
2023-05-19T09:59:29.734Z,18.10
2023-05-19T10:02:00.775Z,18.20
2023-05-19T10:04:30.373Z,18.10
2023-05-19T10:07:00.362Z,18.00
2023-05-19T10:09:29.477Z,18.10
2023-05-19T10:11:59.985Z,18.10
2023-05-19T10:14:29.381Z,18.00
2023-05-19T10:16:59.460Z,18.00
2023-05-19T10:19:28.933Z,18.00
2023-05-19T10:21:57.219Z,18.00
2023-05-19T10:24:25.088Z,18.00
2023-05-19T10:26:57.723Z,17.90
2023-05-19T10:29:29.853Z,17.80
2023-05-19T10:32:01.841Z,17.80
2023-05-19T10:35:09.426Z,17.80
2023-05-19T10:37:46.621Z,17.70
2023-05-19T10:40:22.263Z,17.70
2023-05-19T10:43:02.004Z,17.80
2023-05-19T10:45:35.821Z,17.80
2023-05-19T10:48:04.107Z,17.90
2023-05-19T10:50:37.085Z,17.90
2023-05-19T10:53:04.976Z,18.20
2023-05-19T10:55:52.000Z,18.40
2023-05-19T10:58:40.155Z,18.50
2023-05-19T11:01:15.676Z,18.50
2023-05-19T11:03:48.178Z,18.50
2023-05-19T11:06:26.051Z,18.60
2023-05-19T11:08:55.508Z,18.50
2023-05-19T11:11:23.683Z,18.50
2023-05-19T11:13:56.081Z,18.40
2023-05-19T11:16:33.277Z,18.40
2023-05-19T11:19:01.678Z,18.60
2023-05-19T11:21:43.752Z,19.00
2023-05-19T11:24:11.670Z,19.30
2023-05-19T11:26:43.955Z,19.40
2023-05-19T11:29:12.629Z,19.30
2023-05-19T11:31:44.792Z,19.10
2023-05-19T11:34:13.900Z,19.10
2023-05-19T11:36:43.790Z,19.10
2023-05-19T11:39:12.385Z,19.10
2023-05-19T11:41:40.635Z,19.00
2023-05-19T11:44:11.668Z,19.00
2023-05-19T11:46:40.932Z,18.90
2023-05-19T11:49:08.953Z,18.90
2023-05-19T11:51:38.322Z,18.90
2023-05-19T11:54:06.475Z,18.80
2023-05-19T11:56:35.514Z,18.90
2023-05-19T11:59:03.360Z,18.90
2023-05-19T12:01:31.950Z,18.90
2023-05-19T12:04:01.387Z,18.80
2023-05-19T12:06:29.806Z,18.80
2023-05-19T12:08:57.846Z,18.80
2023-05-19T12:11:25.732Z,18.90
2023-05-19T12:13:59.418Z,19.00
2023-05-19T12:16:34.296Z,19.00
2023-05-19T12:19:06.380Z,19.10
2023-05-19T12:21:34.679Z,18.90
2023-05-19T12:24:03.112Z,19.00
2023-05-19T12:26:30.967Z,19.00
2023-05-19T12:28:59.609Z,19.00
2023-05-19T12:31:27.606Z,19.00
2023-05-19T12:33:56.996Z,19.00
2023-05-19T12:36:27.097Z,19.00
2023-05-19T12:38:55.590Z,19.00
2023-05-19T12:41:25.054Z,19.00
2023-05-19T12:43:52.904Z,18.90
2023-05-19T12:46:20.799Z,18.70
2023-05-19T12:48:49.089Z,18.70
2023-05-19T12:51:20.124Z,18.80
2023-05-19T12:53:51.429Z,18.90
2023-05-19T12:56:19.343Z,18.90
2023-05-19T12:58:47.170Z,18.90
2023-05-19T13:01:19.324Z,19.00
2023-05-19T13:03:47.387Z,18.90
2023-05-19T13:06:15.383Z,18.90
2023-05-19T13:08:43.278Z,18.90
2023-05-19T13:11:12.444Z,18.90
2023-05-19T13:13:40.258Z,18.90
2023-05-19T13:16:08.457Z,18.90
2023-05-19T13:18:38.334Z,19.00
2023-05-19T13:21:06.679Z,18.90
2023-05-19T13:23:34.888Z,19.00
2023-05-19T13:26:04.873Z,19.00
2023-05-19T13:28:34.831Z,18.90
2023-05-19T13:31:02.746Z,18.90
2023-05-19T13:33:30.623Z,18.90
2023-05-19T13:35:58.431Z,18.90
2023-05-19T13:38:26.347Z,18.70
2023-05-19T13:40:54.685Z,18.60
2023-05-19T13:43:22.540Z,18.40
2023-05-19T13:45:51.873Z,18.30
2023-05-19T13:48:19.753Z,18.30
2023-05-19T13:50:47.760Z,18.30
2023-05-19T13:53:15.606Z,18.30
2023-05-19T13:55:43.474Z,18.10
2023-05-19T13:58:12.469Z,18.10
2023-05-19T14:00:40.906Z,18.10
2023-05-19T14:03:10.163Z,18.10
2023-05-19T14:05:38.104Z,18.10
2023-05-19T14:08:06.733Z,18.00
2023-05-19T14:10:34.861Z,17.90
2023-05-19T14:13:29.907Z,17.90
2023-05-19T14:15:52.048Z,17.80
2023-05-19T14:18:21.485Z,17.80
2023-05-19T14:20:49.309Z,17.70
2023-05-19T14:23:17.159Z,17.80
2023-05-19T14:25:45.005Z,17.70
2023-05-19T14:28:12.993Z,17.70
2023-05-19T14:30:41.486Z,17.70
2023-05-19T14:33:10.075Z,17.70
2023-05-19T14:35:39.330Z,17.70
2023-05-19T14:38:07.332Z,17.70
2023-05-19T14:40:37.170Z,17.70
2023-05-19T14:43:05.256Z,17.70
2023-05-19T14:45:33.120Z,17.70
2023-05-19T14:48:01.044Z,17.60
2023-05-19T14:50:29.408Z,17.60
2023-05-19T14:52:59.497Z,17.70
2023-05-19T14:55:27.339Z,17.70
2023-05-19T14:57:55.161Z,17.60
2023-05-19T15:00:23.062Z,17.60
2023-05-19T15:02:50.952Z,17.60
2023-05-19T15:05:18.926Z,17.60
2023-05-19T15:07:46.821Z,17.50
2023-05-19T15:10:16.472Z,17.50
2023-05-19T15:12:44.422Z,17.50
2023-05-19T15:15:12.677Z,17.50
2023-05-19T15:17:40.832Z,17.50
2023-05-19T15:20:09.412Z,17.30
2023-05-19T15:22:37.382Z,17.30
2023-05-19T15:25:05.655Z,17.20
2023-05-19T15:27:36.279Z,17.20
2023-05-19T15:30:04.308Z,17.20
2023-05-19T15:32:32.136Z,17.20
2023-05-19T15:34:59.957Z,17.20
2023-05-19T15:37:27.813Z,17.20
2023-05-19T15:39:56.019Z,17.20
2023-05-19T15:42:23.847Z,17.20
2023-05-19T15:44:52.975Z,17.20
2023-05-19T15:47:20.786Z,17.10
2023-05-19T15:49:48.716Z,17.20
2023-05-19T15:52:16.564Z,17.20
2023-05-19T15:54:44.479Z,17.10
2023-05-19T15:57:13.518Z,17.20
2023-05-19T15:59:41.409Z,17.20
2023-05-19T16:02:10.804Z,17.20
2023-05-19T16:04:38.779Z,17.10
2023-05-19T16:07:06.881Z,17.00
2023-05-19T16:09:34.740Z,16.90
2023-05-19T16:12:02.564Z,16.80
2023-05-19T16:14:33.282Z,16.80
2023-05-19T16:17:01.162Z,16.60
2023-05-19T16:19:30.446Z,16.60
2023-05-19T16:21:58.383Z,16.50
2023-05-19T16:24:26.196Z,16.50
2023-05-19T16:26:54.165Z,16.40
2023-05-19T16:29:21.958Z,16.40
2023-05-19T16:31:49.777Z,16.30
2023-05-19T16:34:17.697Z,16.20
2023-05-19T16:36:46.837Z,16.20
2023-05-19T16:39:14.642Z,16.10
2023-05-19T16:41:42.511Z,16.10
2023-05-19T16:44:11.469Z,16.10
2023-05-19T16:46:39.340Z,16.00
2023-05-19T16:49:07.276Z,15.90
2023-05-19T16:51:35.095Z,16.00
2023-05-19T16:54:04.408Z,15.90
2023-05-19T16:56:32.226Z,16.00
2023-05-19T16:59:00.303Z,16.00
2023-05-19T17:01:28.156Z,16.00
2023-05-19T17:03:56.114Z,15.90
2023-05-19T17:06:23.966Z,15.90
2023-05-19T17:08:51.800Z,15.90
2023-05-19T17:11:21.404Z,16.00
2023-05-19T17:13:49.225Z,15.90
2023-05-19T17:16:17.230Z,15.90
2023-05-19T17:18:45.321Z,15.80
2023-05-19T17:21:13.467Z,15.90
2023-05-19T17:23:41.525Z,15.80
2023-05-19T17:26:09.438Z,15.80
2023-05-19T17:28:38.581Z,15.80
2023-05-19T17:31:11.102Z,15.80
2023-05-19T17:33:38.976Z,15.80
2023-05-19T17:36:07.855Z,15.80
2023-05-19T17:38:40.102Z,15.70
2023-05-19T17:41:10.143Z,15.70
2023-05-19T17:43:40.011Z,15.70
2023-05-19T17:46:08.356Z,15.60
2023-05-19T17:48:36.541Z,15.70
2023-05-19T17:51:05.852Z,15.70
2023-05-19T17:53:34.297Z,15.70
2023-05-19T17:56:03.761Z,15.70
2023-05-19T17:58:32.045Z,15.70
2023-05-19T18:01:01.667Z,15.60
2023-05-19T18:03:30.064Z,15.70
2023-05-19T18:05:59.190Z,15.70
2023-05-19T18:08:27.582Z,15.70
2023-05-19T18:10:58.121Z,15.70
2023-05-19T18:13:26.106Z,15.60
2023-05-19T18:15:54.037Z,15.60
2023-05-19T18:18:23.220Z,15.60
2023-05-19T18:20:51.043Z,15.60
2023-05-19T18:23:20.442Z,15.60
2023-05-19T18:25:51.702Z,15.60
2023-05-19T18:28:19.550Z,15.50
2023-05-19T18:30:47.403Z,15.50
2023-05-19T18:33:15.270Z,15.50
2023-05-19T18:35:44.429Z,15.40
2023-05-19T18:38:12.248Z,15.40
2023-05-19T18:40:44.127Z,15.50
2023-05-19T18:43:11.990Z,15.40
2023-05-19T18:45:40.312Z,15.40
2023-05-19T18:48:08.646Z,15.40
2023-05-19T18:50:37.082Z,15.40
2023-05-19T18:53:06.452Z,15.40
2023-05-19T18:55:35.452Z,15.30
2023-05-19T18:58:04.935Z,15.30
2023-05-19T19:00:33.131Z,15.30
2023-05-19T19:03:01.731Z,15.20
2023-05-19T19:05:30.167Z,15.20
2023-05-19T19:07:58.014Z,15.20
2023-05-19T19:10:27.334Z,15.20
2023-05-19T19:12:55.149Z,15.10
2023-05-19T19:15:22.991Z,15.10
2023-05-19T19:17:50.842Z,15.00
2023-05-19T19:20:18.818Z,15.20
2023-05-19T19:22:46.662Z,15.20
2023-05-19T19:25:14.492Z,15.10
2023-05-19T19:27:43.620Z,15.10
2023-05-19T19:30:11.713Z,15.10
2023-05-19T19:32:39.530Z,15.00
2023-05-19T19:35:07.894Z,15.00
2023-05-19T19:37:35.725Z,15.10
2023-05-19T19:40:03.630Z,15.00
2023-05-19T19:42:32.058Z,15.00
2023-05-19T19:45:01.547Z,15.00
2023-05-19T19:47:29.403Z,15.00
2023-05-19T19:49:57.345Z,15.00
2023-05-19T19:52:25.360Z,15.00
2023-05-19T19:54:53.181Z,15.00
2023-05-19T19:57:20.980Z,14.90
2023-05-19T19:59:54.952Z,15.00
2023-05-19T20:02:24.424Z,14.90
2023-05-19T20:04:52.285Z,14.90
2023-05-19T20:07:20.811Z,14.90
2023-05-19T20:09:50.768Z,14.90
2023-05-19T20:12:18.653Z,14.90
2023-05-19T20:14:47.033Z,14.90
2023-05-19T20:17:14.859Z,14.90
2023-05-19T20:19:44.053Z,14.80
2023-05-19T20:22:11.987Z,14.80
2023-05-19T20:24:39.824Z,14.80
2023-05-19T20:27:09.348Z,14.80
2023-05-19T20:29:37.606Z,14.70
2023-05-19T20:32:05.661Z,14.70
2023-05-19T20:34:33.512Z,14.70
2023-05-19T20:37:02.697Z,14.70
2023-05-19T20:39:31.155Z,14.70
2023-05-19T20:41:58.996Z,14.70
2023-05-19T20:44:26.849Z,14.60
2023-05-19T20:46:55.279Z,14.60
2023-05-19T20:49:23.108Z,14.50
2023-05-19T20:51:50.963Z,14.50
2023-05-19T20:54:20.565Z,14.40
2023-05-19T20:56:48.528Z,14.40
2023-05-19T20:59:16.371Z,14.40
2023-05-19T21:01:45.187Z,14.40
2023-05-19T21:04:13.147Z,14.30
2023-05-19T21:06:41.112Z,14.20
2023-05-19T21:09:09.503Z,14.30
2023-05-19T21:11:38.722Z,14.20
2023-05-19T21:14:08.396Z,14.20
2023-05-19T21:16:38.740Z,14.20
2023-05-19T21:19:07.306Z,14.20
2023-05-19T21:21:36.229Z,14.10
2023-05-19T21:24:04.180Z,14.10
2023-05-19T21:26:32.032Z,14.00
2023-05-19T21:29:01.241Z,14.10
2023-05-19T21:31:29.108Z,14.00
2023-05-19T21:33:57.007Z,14.00
2023-05-19T21:36:24.936Z,13.90
2023-05-19T21:38:52.776Z,13.80
2023-05-19T21:41:21.174Z,13.80
2023-05-19T21:43:49.045Z,13.80
2023-05-19T21:46:18.227Z,13.70
2023-05-19T21:48:46.088Z,13.70
2023-05-19T21:51:13.894Z,13.60
2023-05-19T21:53:41.821Z,13.50
2023-05-19T21:56:09.656Z,13.40
2023-05-19T21:58:37.566Z,13.30
2023-05-19T22:01:05.710Z,13.20
2023-05-19T22:03:35.001Z,13.30
2023-05-19T22:06:02.990Z,13.10
2023-05-19T22:08:30.868Z,13.00
2023-05-19T22:10:58.734Z,13.00
2023-05-19T22:13:26.660Z,12.80
2023-05-19T22:15:54.563Z,12.80
2023-05-19T22:18:22.416Z,12.80
2023-05-19T22:20:51.602Z,12.80
2023-05-19T22:23:19.438Z,12.80
2023-05-19T22:25:47.329Z,12.70
2023-05-19T22:28:15.257Z,12.80
2023-05-19T22:30:44.018Z,12.80
2023-05-19T22:33:12.180Z,12.70
2023-05-19T22:35:40.084Z,12.60
2023-05-19T22:38:10.679Z,12.60
2023-05-19T22:40:39.005Z,12.50
2023-05-19T22:43:06.869Z,12.50
2023-05-19T22:45:35.710Z,12.50
2023-05-19T22:48:04.119Z,12.30
2023-05-19T22:50:32.029Z,12.30
2023-05-19T22:52:59.864Z,12.40
2023-05-19T22:55:29.080Z,12.40
2023-05-19T22:57:56.949Z,12.30
2023-05-19T23:00:24.879Z,12.20
2023-05-19T23:02:52.867Z,12.10
2023-05-19T23:05:20.943Z,12.10
2023-05-19T23:07:48.769Z,12.20
2023-05-19T23:10:16.732Z,12.10
2023-05-19T23:12:45.939Z,12.10
2023-05-19T23:15:13.841Z,12.10
2023-05-19T23:17:41.683Z,12.10
2023-05-19T23:20:10.595Z,12.00
2023-05-19T23:22:38.412Z,12.00
2023-05-19T23:25:07.823Z,12.10
2023-05-19T23:27:36.648Z,12.10
2023-05-19T23:30:07.138Z,12.20
2023-05-19T23:32:35.010Z,12.30
2023-05-19T23:35:11.443Z,12.20
2023-05-19T23:37:39.335Z,12.10
2023-05-19T23:40:08.677Z,12.10
2023-05-19T23:42:37.284Z,12.10
2023-05-19T23:45:07.489Z,12.00
2023-05-19T23:47:35.368Z,12.00
2023-05-19T23:50:03.278Z,12.00
2023-05-19T23:52:32.656Z,12.00
2023-05-19T23:55:00.603Z,12.10
2023-05-19T23:57:28.471Z,12.20
2023-05-19T23:59:56.416Z,12.10
